Fengjie, China
Current Conditions -  °F | °C
As of 11:00 AM on Saturday 25 Oct 2014 (Local Time) from ZUCK Reporting Station
Haze Haze  
Wind Chill: 68°   Ceiling: Unl
Heat Index: 68°   Visibility: 1mi
Dew Point: 63°   Wind: 2mph
Humidity: 83%   Direction: NA
Pressure: 30.09"   Gusts: NA
Location:  31.05°N, 109.5°E
Report Text: ZUCK 250300Z VRB01MPS 1600 BR FEW020 20/17 Q1019 BECMG TL04003000
Loading
Personal Weather Stations






























Interactive Weather Map
Tropical Storm Tracking
New forecast layout! Learn more

10-Day Weather Forecast

Advertisements
Track Severe Weather on mobile